<?xml version="1.0" encoding="UTF-8" standalone="no" ?>
<gpx xmlns="http://www.topografix.com/GPX/1/1" xmlns:xsi="http://www.w3.org/2001/XMLSchema-instance" xsi:schemaLocation="http://www.topografix.com/GPX/1/1 http://www.topografix.com/GPX/1/1/gpx.xsd" version="1.1" creator="VisuGPX - https://www.visugpx.com">
  <metadata>
    <name>boucle fouleix 9km</name>
  </metadata>
  <trk>
    <name><![CDATA[track]]></name>
    <trkseg>
      <trkpt lat="44.98503" lon="0.68095">
        <ele>170</ele>
        <time>2019-02-14T13:45:56Z</time>
      </trkpt>
      <trkpt lat="44.98506" lon="0.68078">
        <ele>183</ele>
        <time>2019-02-14T13:46:11Z</time>
      </trkpt>
      <trkpt lat="44.98502" lon="0.68079">
        <ele>179</ele>
        <time>2019-02-14T13:46:27Z</time>
      </trkpt>
      <trkpt lat="44.98502" lon="0.68079">
        <ele>178</ele>
        <time>2019-02-14T13:46:43Z</time>
      </trkpt>
      <trkpt lat="44.98502" lon="0.68079">
        <ele>178</ele>
        <time>2019-02-14T13:46:58Z</time>
      </trkpt>
      <trkpt lat="44.98504" lon="0.68074">
        <ele>178</ele>
        <time>2019-02-14T13:47:14Z</time>
      </trkpt>
      <trkpt lat="44.98504" lon="0.68073">
        <ele>179</ele>
        <time>2019-02-14T13:47:30Z</time>
      </trkpt>
      <trkpt lat="44.98504" lon="0.68072">
        <ele>179</ele>
        <time>2019-02-14T13:47:46Z</time>
      </trkpt>
      <trkpt lat="44.98504" lon="0.68076">
        <ele>180</ele>
        <time>2019-02-14T13:48:02Z</time>
      </trkpt>
      <trkpt lat="44.98507" lon="0.68079">
        <ele>181</ele>
        <time>2019-02-14T13:48:18Z</time>
      </trkpt>
      <trkpt lat="44.98506" lon="0.6808">
        <ele>181</ele>
        <time>2019-02-14T13:48:34Z</time>
      </trkpt>
      <trkpt lat="44.98501" lon="0.68071">
        <ele>182</ele>
        <time>2019-02-14T13:48:50Z</time>
      </trkpt>
      <trkpt lat="44.98487" lon="0.68058">
        <ele>184</ele>
        <time>2019-02-14T13:49:06Z</time>
      </trkpt>
      <trkpt lat="44.98476" lon="0.68049">
        <ele>188</ele>
        <time>2019-02-14T13:49:22Z</time>
      </trkpt>
      <trkpt lat="44.98459" lon="0.6806">
        <ele>192</ele>
        <time>2019-02-14T13:49:38Z</time>
      </trkpt>
      <trkpt lat="44.98449" lon="0.68081">
        <ele>195</ele>
        <time>2019-02-14T13:49:53Z</time>
      </trkpt>
      <trkpt lat="44.98437" lon="0.68089">
        <ele>195</ele>
        <time>2019-02-14T13:50:09Z</time>
      </trkpt>
      <trkpt lat="44.98422" lon="0.68103">
        <ele>194</ele>
        <time>2019-02-14T13:50:25Z</time>
      </trkpt>
      <trkpt lat="44.98407" lon="0.68113">
        <ele>191</ele>
        <time>2019-02-14T13:50:41Z</time>
      </trkpt>
      <trkpt lat="44.98407" lon="0.68116">
        <ele>189</ele>
        <time>2019-02-14T13:50:56Z</time>
      </trkpt>
      <trkpt lat="44.98401" lon="0.68122">
        <ele>187</ele>
        <time>2019-02-14T13:51:12Z</time>
      </trkpt>
      <trkpt lat="44.98384" lon="0.68127">
        <ele>185</ele>
        <time>2019-02-14T13:51:28Z</time>
      </trkpt>
      <trkpt lat="44.98376" lon="0.6812">
        <ele>185</ele>
        <time>2019-02-14T13:51:44Z</time>
      </trkpt>
      <trkpt lat="44.98377" lon="0.68117">
        <ele>185</ele>
        <time>2019-02-14T13:52:00Z</time>
      </trkpt>
      <trkpt lat="44.98377" lon="0.68116">
        <ele>185</ele>
        <time>2019-02-14T13:52:16Z</time>
      </trkpt>
      <trkpt lat="44.98364" lon="0.68122">
        <ele>185</ele>
        <time>2019-02-14T13:52:32Z</time>
      </trkpt>
      <trkpt lat="44.98342" lon="0.68118">
        <ele>184</ele>
        <time>2019-02-14T13:52:48Z</time>
      </trkpt>
      <trkpt lat="44.98326" lon="0.68105">
        <ele>185</ele>
        <time>2019-02-14T13:53:04Z</time>
      </trkpt>
      <trkpt lat="44.98304" lon="0.68099">
        <ele>185</ele>
        <time>2019-02-14T13:53:20Z</time>
      </trkpt>
      <trkpt lat="44.98284" lon="0.68089">
        <ele>187</ele>
        <time>2019-02-14T13:53:36Z</time>
      </trkpt>
      <trkpt lat="44.9826" lon="0.68086">
        <ele>187</ele>
        <time>2019-02-14T13:53:52Z</time>
      </trkpt>
      <trkpt lat="44.98238" lon="0.68081">
        <ele>186</ele>
        <time>2019-02-14T13:54:08Z</time>
      </trkpt>
      <trkpt lat="44.98215" lon="0.6808">
        <ele>185</ele>
        <time>2019-02-14T13:54:24Z</time>
      </trkpt>
      <trkpt lat="44.98191" lon="0.68076">
        <ele>186</ele>
        <time>2019-02-14T13:54:40Z</time>
      </trkpt>
      <trkpt lat="44.98172" lon="0.68075">
        <ele>186</ele>
        <time>2019-02-14T13:54:56Z</time>
      </trkpt>
      <trkpt lat="44.98153" lon="0.68069">
        <ele>185</ele>
        <time>2019-02-14T13:55:12Z</time>
      </trkpt>
      <trkpt lat="44.98133" lon="0.68077">
        <ele>185</ele>
        <time>2019-02-14T13:55:28Z</time>
      </trkpt>
      <trkpt lat="44.98119" lon="0.68093">
        <ele>186</ele>
        <time>2019-02-14T13:55:44Z</time>
      </trkpt>
      <trkpt lat="44.98101" lon="0.68108">
        <ele>187</ele>
        <time>2019-02-14T13:56:00Z</time>
      </trkpt>
      <trkpt lat="44.9808" lon="0.68121">
        <ele>189</ele>
        <time>2019-02-14T13:56:16Z</time>
      </trkpt>
      <trkpt lat="44.9806" lon="0.68132">
        <ele>191</ele>
        <time>2019-02-14T13:56:32Z</time>
      </trkpt>
      <trkpt lat="44.98042" lon="0.68138">
        <ele>190</ele>
        <time>2019-02-14T13:56:47Z</time>
      </trkpt>
      <trkpt lat="44.98021" lon="0.68141">
        <ele>190</ele>
        <time>2019-02-14T13:57:03Z</time>
      </trkpt>
      <trkpt lat="44.98001" lon="0.68142">
        <ele>190</ele>
        <time>2019-02-14T13:57:19Z</time>
      </trkpt>
      <trkpt lat="44.97983" lon="0.68144">
        <ele>191</ele>
        <time>2019-02-14T13:57:35Z</time>
      </trkpt>
      <trkpt lat="44.9798" lon="0.68146">
        <ele>191</ele>
        <time>2019-02-14T13:57:51Z</time>
      </trkpt>
      <trkpt lat="44.97958" lon="0.68146">
        <ele>192</ele>
        <time>2019-02-14T13:58:07Z</time>
      </trkpt>
      <trkpt lat="44.97937" lon="0.68146">
        <ele>192</ele>
        <time>2019-02-14T13:58:23Z</time>
      </trkpt>
      <trkpt lat="44.97918" lon="0.68144">
        <ele>192</ele>
        <time>2019-02-14T13:58:38Z</time>
      </trkpt>
      <trkpt lat="44.97896" lon="0.6814">
        <ele>192</ele>
        <time>2019-02-14T13:58:53Z</time>
      </trkpt>
      <trkpt lat="44.97875" lon="0.68133">
        <ele>191</ele>
        <time>2019-02-14T13:59:09Z</time>
      </trkpt>
      <trkpt lat="44.97855" lon="0.68119">
        <ele>190</ele>
        <time>2019-02-14T13:59:25Z</time>
      </trkpt>
      <trkpt lat="44.97835" lon="0.68103">
        <ele>190</ele>
        <time>2019-02-14T13:59:41Z</time>
      </trkpt>
      <trkpt lat="44.97817" lon="0.68092">
        <ele>189</ele>
        <time>2019-02-14T13:59:57Z</time>
      </trkpt>
      <trkpt lat="44.97798" lon="0.68081">
        <ele>188</ele>
        <time>2019-02-14T14:00:13Z</time>
      </trkpt>
      <trkpt lat="44.97783" lon="0.68077">
        <ele>187</ele>
        <time>2019-02-14T14:00:29Z</time>
      </trkpt>
      <trkpt lat="44.97763" lon="0.68068">
        <ele>187</ele>
        <time>2019-02-14T14:00:44Z</time>
      </trkpt>
      <trkpt lat="44.9774" lon="0.6806">
        <ele>188</ele>
        <time>2019-02-14T14:01:00Z</time>
      </trkpt>
      <trkpt lat="44.97717" lon="0.68057">
        <ele>190</ele>
        <time>2019-02-14T14:01:16Z</time>
      </trkpt>
      <trkpt lat="44.97696" lon="0.68058">
        <ele>190</ele>
        <time>2019-02-14T14:01:32Z</time>
      </trkpt>
      <trkpt lat="44.97673" lon="0.68058">
        <ele>190</ele>
        <time>2019-02-14T14:01:48Z</time>
      </trkpt>
      <trkpt lat="44.97652" lon="0.68059">
        <ele>189</ele>
        <time>2019-02-14T14:02:03Z</time>
      </trkpt>
      <trkpt lat="44.97629" lon="0.68059">
        <ele>188</ele>
        <time>2019-02-14T14:02:19Z</time>
      </trkpt>
      <trkpt lat="44.97607" lon="0.68059">
        <ele>187</ele>
        <time>2019-02-14T14:02:35Z</time>
      </trkpt>
      <trkpt lat="44.97587" lon="0.68061">
        <ele>186</ele>
        <time>2019-02-14T14:02:51Z</time>
      </trkpt>
      <trkpt lat="44.97561" lon="0.6806">
        <ele>187</ele>
        <time>2019-02-14T14:03:07Z</time>
      </trkpt>
      <trkpt lat="44.97541" lon="0.68063">
        <ele>188</ele>
        <time>2019-02-14T14:03:22Z</time>
      </trkpt>
      <trkpt lat="44.97519" lon="0.68063">
        <ele>187</ele>
        <time>2019-02-14T14:03:38Z</time>
      </trkpt>
      <trkpt lat="44.97497" lon="0.68062">
        <ele>187</ele>
        <time>2019-02-14T14:03:54Z</time>
      </trkpt>
      <trkpt lat="44.9748" lon="0.68068">
        <ele>186</ele>
        <time>2019-02-14T14:04:10Z</time>
      </trkpt>
      <trkpt lat="44.97458" lon="0.68077">
        <ele>186</ele>
        <time>2019-02-14T14:04:26Z</time>
      </trkpt>
      <trkpt lat="44.97437" lon="0.68084">
        <ele>185</ele>
        <time>2019-02-14T14:04:42Z</time>
      </trkpt>
      <trkpt lat="44.97414" lon="0.68088">
        <ele>184</ele>
        <time>2019-02-14T14:04:57Z</time>
      </trkpt>
      <trkpt lat="44.97394" lon="0.68095">
        <ele>183</ele>
        <time>2019-02-14T14:05:13Z</time>
      </trkpt>
      <trkpt lat="44.97376" lon="0.68099">
        <ele>181</ele>
        <time>2019-02-14T14:05:29Z</time>
      </trkpt>
      <trkpt lat="44.97357" lon="0.68108">
        <ele>179</ele>
        <time>2019-02-14T14:05:45Z</time>
      </trkpt>
      <trkpt lat="44.9734" lon="0.68115">
        <ele>178</ele>
        <time>2019-02-14T14:06:00Z</time>
      </trkpt>
      <trkpt lat="44.97319" lon="0.68125">
        <ele>178</ele>
        <time>2019-02-14T14:06:16Z</time>
      </trkpt>
      <trkpt lat="44.97299" lon="0.68133">
        <ele>177</ele>
        <time>2019-02-14T14:06:31Z</time>
      </trkpt>
      <trkpt lat="44.97278" lon="0.68143">
        <ele>177</ele>
        <time>2019-02-14T14:06:47Z</time>
      </trkpt>
      <trkpt lat="44.97257" lon="0.68153">
        <ele>178</ele>
        <time>2019-02-14T14:07:03Z</time>
      </trkpt>
      <trkpt lat="44.97241" lon="0.6817">
        <ele>177</ele>
        <time>2019-02-14T14:07:19Z</time>
      </trkpt>
      <trkpt lat="44.97225" lon="0.68183">
        <ele>176</ele>
        <time>2019-02-14T14:07:35Z</time>
      </trkpt>
      <trkpt lat="44.97205" lon="0.68202">
        <ele>177</ele>
        <time>2019-02-14T14:07:51Z</time>
      </trkpt>
      <trkpt lat="44.97182" lon="0.68214">
        <ele>176</ele>
        <time>2019-02-14T14:08:07Z</time>
      </trkpt>
      <trkpt lat="44.97166" lon="0.68227">
        <ele>175</ele>
        <time>2019-02-14T14:08:23Z</time>
      </trkpt>
      <trkpt lat="44.97146" lon="0.68241">
        <ele>174</ele>
        <time>2019-02-14T14:08:39Z</time>
      </trkpt>
      <trkpt lat="44.97127" lon="0.68254">
        <ele>173</ele>
        <time>2019-02-14T14:08:54Z</time>
      </trkpt>
      <trkpt lat="44.97107" lon="0.68264">
        <ele>172</ele>
        <time>2019-02-14T14:09:10Z</time>
      </trkpt>
      <trkpt lat="44.97089" lon="0.68277">
        <ele>172</ele>
        <time>2019-02-14T14:09:26Z</time>
      </trkpt>
      <trkpt lat="44.97074" lon="0.68296">
        <ele>171</ele>
        <time>2019-02-14T14:09:42Z</time>
      </trkpt>
      <trkpt lat="44.97056" lon="0.68318">
        <ele>170</ele>
        <time>2019-02-14T14:09:58Z</time>
      </trkpt>
      <trkpt lat="44.9704" lon="0.68336">
        <ele>169</ele>
        <time>2019-02-14T14:10:13Z</time>
      </trkpt>
      <trkpt lat="44.97021" lon="0.68352">
        <ele>169</ele>
        <time>2019-02-14T14:10:29Z</time>
      </trkpt>
      <trkpt lat="44.97002" lon="0.6837">
        <ele>168</ele>
        <time>2019-02-14T14:10:45Z</time>
      </trkpt>
      <trkpt lat="44.96984" lon="0.68386">
        <ele>168</ele>
        <time>2019-02-14T14:11:00Z</time>
      </trkpt>
      <trkpt lat="44.96963" lon="0.68384">
        <ele>167</ele>
        <time>2019-02-14T14:11:16Z</time>
      </trkpt>
      <trkpt lat="44.96944" lon="0.68389">
        <ele>166</ele>
        <time>2019-02-14T14:11:32Z</time>
      </trkpt>
      <trkpt lat="44.96923" lon="0.68395">
        <ele>164</ele>
        <time>2019-02-14T14:11:48Z</time>
      </trkpt>
      <trkpt lat="44.969" lon="0.68401">
        <ele>163</ele>
        <time>2019-02-14T14:12:03Z</time>
      </trkpt>
      <trkpt lat="44.96882" lon="0.68413">
        <ele>163</ele>
        <time>2019-02-14T14:12:19Z</time>
      </trkpt>
      <trkpt lat="44.96867" lon="0.68434">
        <ele>161</ele>
        <time>2019-02-14T14:12:35Z</time>
      </trkpt>
      <trkpt lat="44.96849" lon="0.68449">
        <ele>161</ele>
        <time>2019-02-14T14:12:51Z</time>
      </trkpt>
      <trkpt lat="44.96826" lon="0.68447">
        <ele>160</ele>
        <time>2019-02-14T14:13:07Z</time>
      </trkpt>
      <trkpt lat="44.96808" lon="0.68461">
        <ele>160</ele>
        <time>2019-02-14T14:13:23Z</time>
      </trkpt>
      <trkpt lat="44.96788" lon="0.6847">
        <ele>158</ele>
        <time>2019-02-14T14:13:39Z</time>
      </trkpt>
      <trkpt lat="44.96768" lon="0.6847">
        <ele>157</ele>
        <time>2019-02-14T14:13:55Z</time>
      </trkpt>
      <trkpt lat="44.96749" lon="0.68473">
        <ele>154</ele>
        <time>2019-02-14T14:14:11Z</time>
      </trkpt>
      <trkpt lat="44.9673" lon="0.68473">
        <ele>152</ele>
        <time>2019-02-14T14:14:27Z</time>
      </trkpt>
      <trkpt lat="44.96708" lon="0.68464">
        <ele>149</ele>
        <time>2019-02-14T14:14:43Z</time>
      </trkpt>
      <trkpt lat="44.967" lon="0.68458">
        <ele>148</ele>
        <time>2019-02-14T14:14:59Z</time>
      </trkpt>
      <trkpt lat="44.96699" lon="0.68458">
        <ele>148</ele>
        <time>2019-02-14T14:15:15Z</time>
      </trkpt>
      <trkpt lat="44.96699" lon="0.68459">
        <ele>147</ele>
        <time>2019-02-14T14:15:31Z</time>
      </trkpt>
      <trkpt lat="44.96696" lon="0.68455">
        <ele>147</ele>
        <time>2019-02-14T14:15:47Z</time>
      </trkpt>
      <trkpt lat="44.96683" lon="0.68441">
        <ele>145</ele>
        <time>2019-02-14T14:16:03Z</time>
      </trkpt>
      <trkpt lat="44.96673" lon="0.68428">
        <ele>143</ele>
        <time>2019-02-14T14:16:18Z</time>
      </trkpt>
      <trkpt lat="44.96672" lon="0.68422">
        <ele>142</ele>
        <time>2019-02-14T14:16:34Z</time>
      </trkpt>
      <trkpt lat="44.96661" lon="0.68404">
        <ele>140</ele>
        <time>2019-02-14T14:16:50Z</time>
      </trkpt>
      <trkpt lat="44.96647" lon="0.68391">
        <ele>137</ele>
        <time>2019-02-14T14:17:05Z</time>
      </trkpt>
      <trkpt lat="44.96631" lon="0.68376">
        <ele>133</ele>
        <time>2019-02-14T14:17:21Z</time>
      </trkpt>
      <trkpt lat="44.96612" lon="0.68361">
        <ele>129</ele>
        <time>2019-02-14T14:17:37Z</time>
      </trkpt>
      <trkpt lat="44.9659" lon="0.68365">
        <ele>126</ele>
        <time>2019-02-14T14:17:53Z</time>
      </trkpt>
      <trkpt lat="44.96571" lon="0.68366">
        <ele>125</ele>
        <time>2019-02-14T14:18:09Z</time>
      </trkpt>
      <trkpt lat="44.96546" lon="0.68363">
        <ele>125</ele>
        <time>2019-02-14T14:18:25Z</time>
      </trkpt>
      <trkpt lat="44.96532" lon="0.68382">
        <ele>125</ele>
        <time>2019-02-14T14:18:40Z</time>
      </trkpt>
      <trkpt lat="44.96533" lon="0.68407">
        <ele>123</ele>
        <time>2019-02-14T14:18:56Z</time>
      </trkpt>
      <trkpt lat="44.96532" lon="0.68419">
        <ele>120</ele>
        <time>2019-02-14T14:19:12Z</time>
      </trkpt>
      <trkpt lat="44.96523" lon="0.68406">
        <ele>118</ele>
        <time>2019-02-14T14:19:27Z</time>
      </trkpt>
      <trkpt lat="44.9651" lon="0.68385">
        <ele>115</ele>
        <time>2019-02-14T14:19:43Z</time>
      </trkpt>
      <trkpt lat="44.96497" lon="0.68359">
        <ele>112</ele>
        <time>2019-02-14T14:19:59Z</time>
      </trkpt>
      <trkpt lat="44.96488" lon="0.68337">
        <ele>110</ele>
        <time>2019-02-14T14:20:15Z</time>
      </trkpt>
      <trkpt lat="44.96479" lon="0.68306">
        <ele>108</ele>
        <time>2019-02-14T14:20:31Z</time>
      </trkpt>
      <trkpt lat="44.9646" lon="0.6828">
        <ele>107</ele>
        <time>2019-02-14T14:20:47Z</time>
      </trkpt>
      <trkpt lat="44.9644" lon="0.68269">
        <ele>109</ele>
        <time>2019-02-14T14:21:03Z</time>
      </trkpt>
      <trkpt lat="44.96423" lon="0.68261">
        <ele>111</ele>
        <time>2019-02-14T14:21:18Z</time>
      </trkpt>
      <trkpt lat="44.96403" lon="0.68254">
        <ele>112</ele>
        <time>2019-02-14T14:21:34Z</time>
      </trkpt>
      <trkpt lat="44.96383" lon="0.68247">
        <ele>112</ele>
        <time>2019-02-14T14:21:49Z</time>
      </trkpt>
      <trkpt lat="44.96371" lon="0.68226">
        <ele>112</ele>
        <time>2019-02-14T14:22:05Z</time>
      </trkpt>
      <trkpt lat="44.96367" lon="0.68208">
        <ele>112</ele>
        <time>2019-02-14T14:22:20Z</time>
      </trkpt>
      <trkpt lat="44.9636" lon="0.68185">
        <ele>112</ele>
        <time>2019-02-14T14:22:36Z</time>
      </trkpt>
      <trkpt lat="44.96356" lon="0.68159">
        <ele>112</ele>
        <time>2019-02-14T14:22:52Z</time>
      </trkpt>
      <trkpt lat="44.96363" lon="0.68139">
        <ele>114</ele>
        <time>2019-02-14T14:23:08Z</time>
      </trkpt>
      <trkpt lat="44.96371" lon="0.68122">
        <ele>116</ele>
        <time>2019-02-14T14:23:24Z</time>
      </trkpt>
      <trkpt lat="44.96378" lon="0.68097">
        <ele>118</ele>
        <time>2019-02-14T14:23:40Z</time>
      </trkpt>
      <trkpt lat="44.96394" lon="0.6808">
        <ele>119</ele>
        <time>2019-02-14T14:23:55Z</time>
      </trkpt>
      <trkpt lat="44.9641" lon="0.68064">
        <ele>120</ele>
        <time>2019-02-14T14:24:11Z</time>
      </trkpt>
      <trkpt lat="44.96422" lon="0.68041">
        <ele>122</ele>
        <time>2019-02-14T14:24:27Z</time>
      </trkpt>
      <trkpt lat="44.96428" lon="0.68024">
        <ele>122</ele>
        <time>2019-02-14T14:24:43Z</time>
      </trkpt>
      <trkpt lat="44.96419" lon="0.68">
        <ele>123</ele>
        <time>2019-02-14T14:24:59Z</time>
      </trkpt>
      <trkpt lat="44.96402" lon="0.67978">
        <ele>124</ele>
        <time>2019-02-14T14:25:15Z</time>
      </trkpt>
      <trkpt lat="44.96384" lon="0.67955">
        <ele>127</ele>
        <time>2019-02-14T14:25:31Z</time>
      </trkpt>
      <trkpt lat="44.96369" lon="0.67936">
        <ele>131</ele>
        <time>2019-02-14T14:25:47Z</time>
      </trkpt>
      <trkpt lat="44.96353" lon="0.67923">
        <ele>135</ele>
        <time>2019-02-14T14:26:03Z</time>
      </trkpt>
      <trkpt lat="44.96337" lon="0.67906">
        <ele>139</ele>
        <time>2019-02-14T14:26:19Z</time>
      </trkpt>
      <trkpt lat="44.96325" lon="0.67889">
        <ele>141</ele>
        <time>2019-02-14T14:26:35Z</time>
      </trkpt>
      <trkpt lat="44.96314" lon="0.67868">
        <ele>142</ele>
        <time>2019-02-14T14:26:51Z</time>
      </trkpt>
      <trkpt lat="44.96317" lon="0.67843">
        <ele>143</ele>
        <time>2019-02-14T14:27:07Z</time>
      </trkpt>
      <trkpt lat="44.96328" lon="0.67819">
        <ele>143</ele>
        <time>2019-02-14T14:27:23Z</time>
      </trkpt>
      <trkpt lat="44.9634" lon="0.6779">
        <ele>144</ele>
        <time>2019-02-14T14:27:39Z</time>
      </trkpt>
      <trkpt lat="44.96324" lon="0.67778">
        <ele>145</ele>
        <time>2019-02-14T14:27:54Z</time>
      </trkpt>
      <trkpt lat="44.96301" lon="0.67777">
        <ele>145</ele>
        <time>2019-02-14T14:28:10Z</time>
      </trkpt>
      <trkpt lat="44.96285" lon="0.67772">
        <ele>145</ele>
        <time>2019-02-14T14:28:26Z</time>
      </trkpt>
      <trkpt lat="44.96265" lon="0.67758">
        <ele>145</ele>
        <time>2019-02-14T14:28:42Z</time>
      </trkpt>
      <trkpt lat="44.9625" lon="0.67751">
        <ele>145</ele>
        <time>2019-02-14T14:28:58Z</time>
      </trkpt>
      <trkpt lat="44.96246" lon="0.6775">
        <ele>144</ele>
        <time>2019-02-14T14:29:14Z</time>
      </trkpt>
      <trkpt lat="44.96228" lon="0.67737">
        <ele>143</ele>
        <time>2019-02-14T14:29:30Z</time>
      </trkpt>
      <trkpt lat="44.96212" lon="0.67723">
        <ele>143</ele>
        <time>2019-02-14T14:29:46Z</time>
      </trkpt>
      <trkpt lat="44.96197" lon="0.677">
        <ele>142</ele>
        <time>2019-02-14T14:30:02Z</time>
      </trkpt>
      <trkpt lat="44.96187" lon="0.67674">
        <ele>140</ele>
        <time>2019-02-14T14:30:18Z</time>
      </trkpt>
      <trkpt lat="44.96174" lon="0.67656">
        <ele>138</ele>
        <time>2019-02-14T14:30:34Z</time>
      </trkpt>
      <trkpt lat="44.9616" lon="0.67636">
        <ele>136</ele>
        <time>2019-02-14T14:30:50Z</time>
      </trkpt>
      <trkpt lat="44.96148" lon="0.67609">
        <ele>134</ele>
        <time>2019-02-14T14:31:05Z</time>
      </trkpt>
      <trkpt lat="44.96133" lon="0.67589">
        <ele>133</ele>
        <time>2019-02-14T14:31:20Z</time>
      </trkpt>
      <trkpt lat="44.96119" lon="0.67569">
        <ele>131</ele>
        <time>2019-02-14T14:31:36Z</time>
      </trkpt>
      <trkpt lat="44.96106" lon="0.67547">
        <ele>129</ele>
        <time>2019-02-14T14:31:52Z</time>
      </trkpt>
      <trkpt lat="44.96097" lon="0.67525">
        <ele>127</ele>
        <time>2019-02-14T14:32:08Z</time>
      </trkpt>
      <trkpt lat="44.96088" lon="0.67501">
        <ele>126</ele>
        <time>2019-02-14T14:32:23Z</time>
      </trkpt>
      <trkpt lat="44.96079" lon="0.67476">
        <ele>124</ele>
        <time>2019-02-14T14:32:39Z</time>
      </trkpt>
      <trkpt lat="44.9607" lon="0.67446">
        <ele>121</ele>
        <time>2019-02-14T14:32:54Z</time>
      </trkpt>
      <trkpt lat="44.9607" lon="0.67414">
        <ele>119</ele>
        <time>2019-02-14T14:33:10Z</time>
      </trkpt>
      <trkpt lat="44.96072" lon="0.67384">
        <ele>117</ele>
        <time>2019-02-14T14:33:26Z</time>
      </trkpt>
      <trkpt lat="44.96069" lon="0.67354">
        <ele>115</ele>
        <time>2019-02-14T14:33:42Z</time>
      </trkpt>
      <trkpt lat="44.96062" lon="0.67323">
        <ele>113</ele>
        <time>2019-02-14T14:33:59Z</time>
      </trkpt>
      <trkpt lat="44.96059" lon="0.67297">
        <ele>112</ele>
        <time>2019-02-14T14:34:15Z</time>
      </trkpt>
      <trkpt lat="44.96053" lon="0.67267">
        <ele>111</ele>
        <time>2019-02-14T14:34:31Z</time>
      </trkpt>
      <trkpt lat="44.96043" lon="0.67245">
        <ele>109</ele>
        <time>2019-02-14T14:34:47Z</time>
      </trkpt>
      <trkpt lat="44.96024" lon="0.67244">
        <ele>109</ele>
        <time>2019-02-14T14:35:03Z</time>
      </trkpt>
      <trkpt lat="44.96003" lon="0.67254">
        <ele>109</ele>
        <time>2019-02-14T14:35:18Z</time>
      </trkpt>
      <trkpt lat="44.95983" lon="0.67254">
        <ele>109</ele>
        <time>2019-02-14T14:35:34Z</time>
      </trkpt>
      <trkpt lat="44.95962" lon="0.67259">
        <ele>108</ele>
        <time>2019-02-14T14:35:50Z</time>
      </trkpt>
      <trkpt lat="44.95941" lon="0.67264">
        <ele>109</ele>
        <time>2019-02-14T14:36:05Z</time>
      </trkpt>
      <trkpt lat="44.95918" lon="0.67264">
        <ele>111</ele>
        <time>2019-02-14T14:36:21Z</time>
      </trkpt>
      <trkpt lat="44.95899" lon="0.67268">
        <ele>112</ele>
        <time>2019-02-14T14:36:37Z</time>
      </trkpt>
      <trkpt lat="44.95878" lon="0.67267">
        <ele>112</ele>
        <time>2019-02-14T14:36:52Z</time>
      </trkpt>
      <trkpt lat="44.95858" lon="0.67269">
        <ele>113</ele>
        <time>2019-02-14T14:37:08Z</time>
      </trkpt>
      <trkpt lat="44.95837" lon="0.67269">
        <ele>113</ele>
        <time>2019-02-14T14:37:23Z</time>
      </trkpt>
      <trkpt lat="44.95821" lon="0.67267">
        <ele>112</ele>
        <time>2019-02-14T14:37:38Z</time>
      </trkpt>
      <trkpt lat="44.95798" lon="0.6726">
        <ele>112</ele>
        <time>2019-02-14T14:37:54Z</time>
      </trkpt>
      <trkpt lat="44.95778" lon="0.67247">
        <ele>111</ele>
        <time>2019-02-14T14:38:10Z</time>
      </trkpt>
      <trkpt lat="44.95758" lon="0.67235">
        <ele>110</ele>
        <time>2019-02-14T14:38:26Z</time>
      </trkpt>
      <trkpt lat="44.95741" lon="0.67228">
        <ele>110</ele>
        <time>2019-02-14T14:38:42Z</time>
      </trkpt>
      <trkpt lat="44.95729" lon="0.67222">
        <ele>110</ele>
        <time>2019-02-14T14:38:58Z</time>
      </trkpt>
      <trkpt lat="44.95712" lon="0.67211">
        <ele>109</ele>
        <time>2019-02-14T14:39:14Z</time>
      </trkpt>
      <trkpt lat="44.95692" lon="0.672">
        <ele>107</ele>
        <time>2019-02-14T14:39:30Z</time>
      </trkpt>
      <trkpt lat="44.95671" lon="0.67188">
        <ele>106</ele>
        <time>2019-02-14T14:39:46Z</time>
      </trkpt>
      <trkpt lat="44.95659" lon="0.6717">
        <ele>105</ele>
        <time>2019-02-14T14:40:02Z</time>
      </trkpt>
      <trkpt lat="44.95665" lon="0.67146">
        <ele>103</ele>
        <time>2019-02-14T14:40:17Z</time>
      </trkpt>
      <trkpt lat="44.95673" lon="0.67121">
        <ele>100</ele>
        <time>2019-02-14T14:40:33Z</time>
      </trkpt>
      <trkpt lat="44.95676" lon="0.67091">
        <ele>98</ele>
        <time>2019-02-14T14:40:49Z</time>
      </trkpt>
      <trkpt lat="44.95673" lon="0.67067">
        <ele>98</ele>
        <time>2019-02-14T14:41:04Z</time>
      </trkpt>
      <trkpt lat="44.95668" lon="0.67041">
        <ele>98</ele>
        <time>2019-02-14T14:41:20Z</time>
      </trkpt>
      <trkpt lat="44.95658" lon="0.67016">
        <ele>98</ele>
        <time>2019-02-14T14:41:36Z</time>
      </trkpt>
      <trkpt lat="44.95667" lon="0.67021">
        <ele>97</ele>
        <time>2019-02-14T14:41:52Z</time>
      </trkpt>
      <trkpt lat="44.9567" lon="0.67023">
        <ele>96</ele>
        <time>2019-02-14T14:42:08Z</time>
      </trkpt>
      <trkpt lat="44.95684" lon="0.67022">
        <ele>95</ele>
        <time>2019-02-14T14:42:24Z</time>
      </trkpt>
      <trkpt lat="44.95691" lon="0.67028">
        <ele>95</ele>
        <time>2019-02-14T14:42:40Z</time>
      </trkpt>
      <trkpt lat="44.95702" lon="0.67039">
        <ele>95</ele>
        <time>2019-02-14T14:42:56Z</time>
      </trkpt>
      <trkpt lat="44.95719" lon="0.67046">
        <ele>94</ele>
        <time>2019-02-14T14:43:12Z</time>
      </trkpt>
      <trkpt lat="44.9573" lon="0.67058">
        <ele>92</ele>
        <time>2019-02-14T14:43:27Z</time>
      </trkpt>
      <trkpt lat="44.95747" lon="0.67067">
        <ele>90</ele>
        <time>2019-02-14T14:43:43Z</time>
      </trkpt>
      <trkpt lat="44.95771" lon="0.67071">
        <ele>89</ele>
        <time>2019-02-14T14:43:59Z</time>
      </trkpt>
      <trkpt lat="44.95796" lon="0.67075">
        <ele>90</ele>
        <time>2019-02-14T14:44:15Z</time>
      </trkpt>
      <trkpt lat="44.95817" lon="0.67079">
        <ele>91</ele>
        <time>2019-02-14T14:44:31Z</time>
      </trkpt>
      <trkpt lat="44.95834" lon="0.67085">
        <ele>93</ele>
        <time>2019-02-14T14:44:47Z</time>
      </trkpt>
      <trkpt lat="44.95846" lon="0.67089">
        <ele>93</ele>
        <time>2019-02-14T14:45:03Z</time>
      </trkpt>
      <trkpt lat="44.9587" lon="0.67089">
        <ele>91</ele>
        <time>2019-02-14T14:45:19Z</time>
      </trkpt>
      <trkpt lat="44.95887" lon="0.67093">
        <ele>91</ele>
        <time>2019-02-14T14:45:35Z</time>
      </trkpt>
      <trkpt lat="44.9591" lon="0.67065">
        <ele>92</ele>
        <time>2019-02-14T14:45:51Z</time>
      </trkpt>
      <trkpt lat="44.95919" lon="0.67058">
        <ele>95</ele>
        <time>2019-02-14T14:46:07Z</time>
      </trkpt>
      <trkpt lat="44.95917" lon="0.67062">
        <ele>96</ele>
        <time>2019-02-14T14:46:23Z</time>
      </trkpt>
      <trkpt lat="44.95928" lon="0.67056">
        <ele>97</ele>
        <time>2019-02-14T14:46:39Z</time>
      </trkpt>
      <trkpt lat="44.95943" lon="0.67045">
        <ele>98</ele>
        <time>2019-02-14T14:46:54Z</time>
      </trkpt>
      <trkpt lat="44.95948" lon="0.67047">
        <ele>101</ele>
        <time>2019-02-14T14:47:10Z</time>
      </trkpt>
      <trkpt lat="44.95964" lon="0.67037">
        <ele>102</ele>
        <time>2019-02-14T14:47:26Z</time>
      </trkpt>
      <trkpt lat="44.95973" lon="0.6703">
        <ele>103</ele>
        <time>2019-02-14T14:47:41Z</time>
      </trkpt>
      <trkpt lat="44.95988" lon="0.67022">
        <ele>104</ele>
        <time>2019-02-14T14:47:57Z</time>
      </trkpt>
      <trkpt lat="44.96004" lon="0.67013">
        <ele>106</ele>
        <time>2019-02-14T14:48:13Z</time>
      </trkpt>
      <trkpt lat="44.96017" lon="0.67004">
        <ele>108</ele>
        <time>2019-02-14T14:48:29Z</time>
      </trkpt>
      <trkpt lat="44.96023" lon="0.67003">
        <ele>109</ele>
        <time>2019-02-14T14:48:45Z</time>
      </trkpt>
      <trkpt lat="44.96038" lon="0.67">
        <ele>110</ele>
        <time>2019-02-14T14:49:01Z</time>
      </trkpt>
      <trkpt lat="44.96056" lon="0.66999">
        <ele>111</ele>
        <time>2019-02-14T14:49:17Z</time>
      </trkpt>
      <trkpt lat="44.96075" lon="0.66991">
        <ele>112</ele>
        <time>2019-02-14T14:49:33Z</time>
      </trkpt>
      <trkpt lat="44.96094" lon="0.66985">
        <ele>113</ele>
        <time>2019-02-14T14:49:49Z</time>
      </trkpt>
      <trkpt lat="44.96113" lon="0.6698">
        <ele>114</ele>
        <time>2019-02-14T14:50:05Z</time>
      </trkpt>
      <trkpt lat="44.96128" lon="0.66977">
        <ele>114</ele>
        <time>2019-02-14T14:50:21Z</time>
      </trkpt>
      <trkpt lat="44.96143" lon="0.66969">
        <ele>115</ele>
        <time>2019-02-14T14:50:37Z</time>
      </trkpt>
      <trkpt lat="44.96157" lon="0.66964">
        <ele>115</ele>
        <time>2019-02-14T14:50:52Z</time>
      </trkpt>
      <trkpt lat="44.96173" lon="0.66956">
        <ele>113</ele>
        <time>2019-02-14T14:51:08Z</time>
      </trkpt>
      <trkpt lat="44.96198" lon="0.6695">
        <ele>111</ele>
        <time>2019-02-14T14:51:24Z</time>
      </trkpt>
      <trkpt lat="44.96214" lon="0.6694">
        <ele>112</ele>
        <time>2019-02-14T14:51:40Z</time>
      </trkpt>
      <trkpt lat="44.96218" lon="0.66917">
        <ele>115</ele>
        <time>2019-02-14T14:51:56Z</time>
      </trkpt>
      <trkpt lat="44.9621" lon="0.66899">
        <ele>119</ele>
        <time>2019-02-14T14:52:11Z</time>
      </trkpt>
      <trkpt lat="44.96205" lon="0.66879">
        <ele>123</ele>
        <time>2019-02-14T14:52:27Z</time>
      </trkpt>
      <trkpt lat="44.96206" lon="0.6687">
        <ele>125</ele>
        <time>2019-02-14T14:52:43Z</time>
      </trkpt>
      <trkpt lat="44.96197" lon="0.66848">
        <ele>129</ele>
        <time>2019-02-14T14:52:59Z</time>
      </trkpt>
      <trkpt lat="44.96187" lon="0.66837">
        <ele>132</ele>
        <time>2019-02-14T14:53:15Z</time>
      </trkpt>
      <trkpt lat="44.96173" lon="0.66844">
        <ele>135</ele>
        <time>2019-02-14T14:53:30Z</time>
      </trkpt>
      <trkpt lat="44.96158" lon="0.66855">
        <ele>136</ele>
        <time>2019-02-14T14:53:46Z</time>
      </trkpt>
      <trkpt lat="44.96144" lon="0.6685">
        <ele>138</ele>
        <time>2019-02-14T14:54:02Z</time>
      </trkpt>
      <trkpt lat="44.96134" lon="0.66824">
        <ele>139</ele>
        <time>2019-02-14T14:54:18Z</time>
      </trkpt>
      <trkpt lat="44.96127" lon="0.66811">
        <ele>140</ele>
        <time>2019-02-14T14:54:33Z</time>
      </trkpt>
      <trkpt lat="44.96124" lon="0.66812">
        <ele>141</ele>
        <time>2019-02-14T14:54:49Z</time>
      </trkpt>
      <trkpt lat="44.96109" lon="0.66807">
        <ele>144</ele>
        <time>2019-02-14T14:55:05Z</time>
      </trkpt>
      <trkpt lat="44.96092" lon="0.66789">
        <ele>146</ele>
        <time>2019-02-14T14:55:21Z</time>
      </trkpt>
      <trkpt lat="44.96076" lon="0.66776">
        <ele>148</ele>
        <time>2019-02-14T14:55:37Z</time>
      </trkpt>
      <trkpt lat="44.96062" lon="0.66764">
        <ele>149</ele>
        <time>2019-02-14T14:55:53Z</time>
      </trkpt>
      <trkpt lat="44.96044" lon="0.6675">
        <ele>148</ele>
        <time>2019-02-14T14:56:09Z</time>
      </trkpt>
      <trkpt lat="44.96044" lon="0.6673">
        <ele>148</ele>
        <time>2019-02-14T14:56:24Z</time>
      </trkpt>
      <trkpt lat="44.96045" lon="0.66707">
        <ele>147</ele>
        <time>2019-02-14T14:56:40Z</time>
      </trkpt>
      <trkpt lat="44.96038" lon="0.66687">
        <ele>147</ele>
        <time>2019-02-14T14:56:56Z</time>
      </trkpt>
      <trkpt lat="44.96029" lon="0.66665">
        <ele>148</ele>
        <time>2019-02-14T14:57:12Z</time>
      </trkpt>
      <trkpt lat="44.96034" lon="0.66645">
        <ele>147</ele>
        <time>2019-02-14T14:57:28Z</time>
      </trkpt>
      <trkpt lat="44.96043" lon="0.66641">
        <ele>147</ele>
        <time>2019-02-14T14:57:44Z</time>
      </trkpt>
      <trkpt lat="44.96054" lon="0.66638">
        <ele>147</ele>
        <time>2019-02-14T14:57:59Z</time>
      </trkpt>
      <trkpt lat="44.96076" lon="0.66632">
        <ele>147</ele>
        <time>2019-02-14T14:58:15Z</time>
      </trkpt>
      <trkpt lat="44.96093" lon="0.66635">
        <ele>147</ele>
        <time>2019-02-14T14:58:31Z</time>
      </trkpt>
      <trkpt lat="44.96111" lon="0.66633">
        <ele>148</ele>
        <time>2019-02-14T14:58:47Z</time>
      </trkpt>
      <trkpt lat="44.96129" lon="0.66634">
        <ele>149</ele>
        <time>2019-02-14T14:59:02Z</time>
      </trkpt>
      <trkpt lat="44.96145" lon="0.66635">
        <ele>150</ele>
        <time>2019-02-14T14:59:18Z</time>
      </trkpt>
      <trkpt lat="44.96162" lon="0.66639">
        <ele>150</ele>
        <time>2019-02-14T14:59:34Z</time>
      </trkpt>
      <trkpt lat="44.96183" lon="0.66638">
        <ele>150</ele>
        <time>2019-02-14T14:59:50Z</time>
      </trkpt>
      <trkpt lat="44.96203" lon="0.66638">
        <ele>149</ele>
        <time>2019-02-14T15:00:06Z</time>
      </trkpt>
      <trkpt lat="44.96223" lon="0.66633">
        <ele>148</ele>
        <time>2019-02-14T15:00:22Z</time>
      </trkpt>
      <trkpt lat="44.96242" lon="0.66638">
        <ele>148</ele>
        <time>2019-02-14T15:00:38Z</time>
      </trkpt>
      <trkpt lat="44.96261" lon="0.66642">
        <ele>148</ele>
        <time>2019-02-14T15:00:54Z</time>
      </trkpt>
      <trkpt lat="44.96282" lon="0.66644">
        <ele>147</ele>
        <time>2019-02-14T15:01:10Z</time>
      </trkpt>
      <trkpt lat="44.963" lon="0.66641">
        <ele>146</ele>
        <time>2019-02-14T15:01:26Z</time>
      </trkpt>
      <trkpt lat="44.9632" lon="0.66634">
        <ele>147</ele>
        <time>2019-02-14T15:01:42Z</time>
      </trkpt>
      <trkpt lat="44.96342" lon="0.66634">
        <ele>148</ele>
        <time>2019-02-14T15:01:57Z</time>
      </trkpt>
      <trkpt lat="44.96361" lon="0.66637">
        <ele>149</ele>
        <time>2019-02-14T15:02:13Z</time>
      </trkpt>
      <trkpt lat="44.96382" lon="0.66638">
        <ele>149</ele>
        <time>2019-02-14T15:02:29Z</time>
      </trkpt>
      <trkpt lat="44.96398" lon="0.66641">
        <ele>150</ele>
        <time>2019-02-14T15:02:44Z</time>
      </trkpt>
      <trkpt lat="44.96419" lon="0.66643">
        <ele>149</ele>
        <time>2019-02-14T15:03:00Z</time>
      </trkpt>
      <trkpt lat="44.96439" lon="0.66643">
        <ele>149</ele>
        <time>2019-02-14T15:03:16Z</time>
      </trkpt>
      <trkpt lat="44.96456" lon="0.66633">
        <ele>150</ele>
        <time>2019-02-14T15:03:32Z</time>
      </trkpt>
      <trkpt lat="44.96478" lon="0.6663">
        <ele>150</ele>
        <time>2019-02-14T15:03:48Z</time>
      </trkpt>
      <trkpt lat="44.96502" lon="0.66623">
        <ele>152</ele>
        <time>2019-02-14T15:04:04Z</time>
      </trkpt>
      <trkpt lat="44.9652" lon="0.66619">
        <ele>153</ele>
        <time>2019-02-14T15:04:20Z</time>
      </trkpt>
      <trkpt lat="44.96538" lon="0.66618">
        <ele>154</ele>
        <time>2019-02-14T15:04:35Z</time>
      </trkpt>
      <trkpt lat="44.96553" lon="0.66621">
        <ele>155</ele>
        <time>2019-02-14T15:04:51Z</time>
      </trkpt>
      <trkpt lat="44.96575" lon="0.66615">
        <ele>156</ele>
        <time>2019-02-14T15:05:07Z</time>
      </trkpt>
      <trkpt lat="44.96596" lon="0.66617">
        <ele>158</ele>
        <time>2019-02-14T15:05:23Z</time>
      </trkpt>
      <trkpt lat="44.96614" lon="0.66618">
        <ele>160</ele>
        <time>2019-02-14T15:05:39Z</time>
      </trkpt>
      <trkpt lat="44.96635" lon="0.6662">
        <ele>161</ele>
        <time>2019-02-14T15:05:55Z</time>
      </trkpt>
      <trkpt lat="44.96658" lon="0.66626">
        <ele>162</ele>
        <time>2019-02-14T15:06:11Z</time>
      </trkpt>
      <trkpt lat="44.96669" lon="0.66632">
        <ele>162</ele>
        <time>2019-02-14T15:06:27Z</time>
      </trkpt>
      <trkpt lat="44.96681" lon="0.66649">
        <ele>161</ele>
        <time>2019-02-14T15:06:42Z</time>
      </trkpt>
      <trkpt lat="44.96679" lon="0.66672">
        <ele>159</ele>
        <time>2019-02-14T15:06:58Z</time>
      </trkpt>
      <trkpt lat="44.96678" lon="0.66699">
        <ele>158</ele>
        <time>2019-02-14T15:07:14Z</time>
      </trkpt>
      <trkpt lat="44.96679" lon="0.66732">
        <ele>157</ele>
        <time>2019-02-14T15:07:30Z</time>
      </trkpt>
      <trkpt lat="44.96677" lon="0.66761">
        <ele>157</ele>
        <time>2019-02-14T15:07:46Z</time>
      </trkpt>
      <trkpt lat="44.96675" lon="0.66785">
        <ele>157</ele>
        <time>2019-02-14T15:08:01Z</time>
      </trkpt>
      <trkpt lat="44.96679" lon="0.66806">
        <ele>158</ele>
        <time>2019-02-14T15:08:17Z</time>
      </trkpt>
      <trkpt lat="44.9668" lon="0.66811">
        <ele>158</ele>
        <time>2019-02-14T15:08:33Z</time>
      </trkpt>
      <trkpt lat="44.96694" lon="0.66839">
        <ele>158</ele>
        <time>2019-02-14T15:08:49Z</time>
      </trkpt>
      <trkpt lat="44.96701" lon="0.66866">
        <ele>158</ele>
        <time>2019-02-14T15:09:05Z</time>
      </trkpt>
      <trkpt lat="44.96704" lon="0.66894">
        <ele>159</ele>
        <time>2019-02-14T15:09:20Z</time>
      </trkpt>
      <trkpt lat="44.96714" lon="0.66918">
        <ele>160</ele>
        <time>2019-02-14T15:09:36Z</time>
      </trkpt>
      <trkpt lat="44.96724" lon="0.66938">
        <ele>160</ele>
        <time>2019-02-14T15:09:52Z</time>
      </trkpt>
      <trkpt lat="44.9674" lon="0.66954">
        <ele>159</ele>
        <time>2019-02-14T15:10:08Z</time>
      </trkpt>
      <trkpt lat="44.96755" lon="0.66964">
        <ele>157</ele>
        <time>2019-02-14T15:10:24Z</time>
      </trkpt>
      <trkpt lat="44.9677" lon="0.66979">
        <ele>155</ele>
        <time>2019-02-14T15:10:40Z</time>
      </trkpt>
      <trkpt lat="44.96775" lon="0.66985">
        <ele>153</ele>
        <time>2019-02-14T15:10:56Z</time>
      </trkpt>
      <trkpt lat="44.96792" lon="0.66992">
        <ele>149</ele>
        <time>2019-02-14T15:11:11Z</time>
      </trkpt>
      <trkpt lat="44.96803" lon="0.66999">
        <ele>148</ele>
        <time>2019-02-14T15:11:27Z</time>
      </trkpt>
      <trkpt lat="44.96828" lon="0.66995">
        <ele>145</ele>
        <time>2019-02-14T15:11:43Z</time>
      </trkpt>
      <trkpt lat="44.96845" lon="0.66999">
        <ele>144</ele>
        <time>2019-02-14T15:11:59Z</time>
      </trkpt>
      <trkpt lat="44.96868" lon="0.67006">
        <ele>142</ele>
        <time>2019-02-14T15:12:15Z</time>
      </trkpt>
      <trkpt lat="44.96887" lon="0.67013">
        <ele>140</ele>
        <time>2019-02-14T15:12:31Z</time>
      </trkpt>
      <trkpt lat="44.96912" lon="0.67018">
        <ele>138</ele>
        <time>2019-02-14T15:12:47Z</time>
      </trkpt>
      <trkpt lat="44.96924" lon="0.6702">
        <ele>137</ele>
        <time>2019-02-14T15:13:03Z</time>
      </trkpt>
      <trkpt lat="44.96943" lon="0.67027">
        <ele>137</ele>
        <time>2019-02-14T15:13:19Z</time>
      </trkpt>
      <trkpt lat="44.9696" lon="0.67029">
        <ele>137</ele>
        <time>2019-02-14T15:13:35Z</time>
      </trkpt>
      <trkpt lat="44.96982" lon="0.6704">
        <ele>137</ele>
        <time>2019-02-14T15:13:51Z</time>
      </trkpt>
      <trkpt lat="44.96986" lon="0.67037">
        <ele>136</ele>
        <time>2019-02-14T15:14:07Z</time>
      </trkpt>
      <trkpt lat="44.96999" lon="0.67044">
        <ele>134</ele>
        <time>2019-02-14T15:14:23Z</time>
      </trkpt>
      <trkpt lat="44.97016" lon="0.67051">
        <ele>131</ele>
        <time>2019-02-14T15:14:39Z</time>
      </trkpt>
      <trkpt lat="44.97035" lon="0.67057">
        <ele>127</ele>
        <time>2019-02-14T15:14:55Z</time>
      </trkpt>
      <trkpt lat="44.97055" lon="0.67062">
        <ele>124</ele>
        <time>2019-02-14T15:15:11Z</time>
      </trkpt>
      <trkpt lat="44.9707" lon="0.67067">
        <ele>123</ele>
        <time>2019-02-14T15:15:27Z</time>
      </trkpt>
      <trkpt lat="44.97089" lon="0.67072">
        <ele>125</ele>
        <time>2019-02-14T15:15:42Z</time>
      </trkpt>
      <trkpt lat="44.97101" lon="0.6707">
        <ele>128</ele>
        <time>2019-02-14T15:15:58Z</time>
      </trkpt>
      <trkpt lat="44.97117" lon="0.67069">
        <ele>130</ele>
        <time>2019-02-14T15:16:14Z</time>
      </trkpt>
      <trkpt lat="44.97133" lon="0.67063">
        <ele>131</ele>
        <time>2019-02-14T15:16:30Z</time>
      </trkpt>
      <trkpt lat="44.97146" lon="0.6706">
        <ele>134</ele>
        <time>2019-02-14T15:16:46Z</time>
      </trkpt>
      <trkpt lat="44.9716" lon="0.67055">
        <ele>135</ele>
        <time>2019-02-14T15:17:01Z</time>
      </trkpt>
      <trkpt lat="44.97181" lon="0.67051">
        <ele>135</ele>
        <time>2019-02-14T15:17:17Z</time>
      </trkpt>
      <trkpt lat="44.97202" lon="0.67047">
        <ele>134</ele>
        <time>2019-02-14T15:17:33Z</time>
      </trkpt>
      <trkpt lat="44.97227" lon="0.67048">
        <ele>132</ele>
        <time>2019-02-14T15:17:49Z</time>
      </trkpt>
      <trkpt lat="44.97253" lon="0.67051">
        <ele>130</ele>
        <time>2019-02-14T15:18:05Z</time>
      </trkpt>
      <trkpt lat="44.97269" lon="0.67054">
        <ele>129</ele>
        <time>2019-02-14T15:18:21Z</time>
      </trkpt>
      <trkpt lat="44.97276" lon="0.67063">
        <ele>129</ele>
        <time>2019-02-14T15:18:37Z</time>
      </trkpt>
      <trkpt lat="44.9729" lon="0.67062">
        <ele>130</ele>
        <time>2019-02-14T15:18:53Z</time>
      </trkpt>
      <trkpt lat="44.97306" lon="0.67059">
        <ele>129</ele>
        <time>2019-02-14T15:19:09Z</time>
      </trkpt>
      <trkpt lat="44.9733" lon="0.67061">
        <ele>129</ele>
        <time>2019-02-14T15:19:25Z</time>
      </trkpt>
      <trkpt lat="44.97343" lon="0.67073">
        <ele>128</ele>
        <time>2019-02-14T15:19:41Z</time>
      </trkpt>
      <trkpt lat="44.97362" lon="0.67082">
        <ele>128</ele>
        <time>2019-02-14T15:19:56Z</time>
      </trkpt>
      <trkpt lat="44.97379" lon="0.67094">
        <ele>128</ele>
        <time>2019-02-14T15:20:12Z</time>
      </trkpt>
      <trkpt lat="44.97396" lon="0.67106">
        <ele>127</ele>
        <time>2019-02-14T15:20:28Z</time>
      </trkpt>
      <trkpt lat="44.97408" lon="0.67107">
        <ele>124</ele>
        <time>2019-02-14T15:20:44Z</time>
      </trkpt>
      <trkpt lat="44.97433" lon="0.67118">
        <ele>121</ele>
        <time>2019-02-14T15:21:00Z</time>
      </trkpt>
      <trkpt lat="44.9745" lon="0.67128">
        <ele>119</ele>
        <time>2019-02-14T15:21:16Z</time>
      </trkpt>
      <trkpt lat="44.97473" lon="0.67144">
        <ele>120</ele>
        <time>2019-02-14T15:21:32Z</time>
      </trkpt>
      <trkpt lat="44.97488" lon="0.67152">
        <ele>123</ele>
        <time>2019-02-14T15:21:48Z</time>
      </trkpt>
      <trkpt lat="44.97502" lon="0.6715">
        <ele>126</ele>
        <time>2019-02-14T15:22:04Z</time>
      </trkpt>
      <trkpt lat="44.97523" lon="0.67145">
        <ele>128</ele>
        <time>2019-02-14T15:22:20Z</time>
      </trkpt>
      <trkpt lat="44.97545" lon="0.67147">
        <ele>130</ele>
        <time>2019-02-14T15:22:36Z</time>
      </trkpt>
      <trkpt lat="44.97561" lon="0.6716">
        <ele>131</ele>
        <time>2019-02-14T15:22:52Z</time>
      </trkpt>
      <trkpt lat="44.97571" lon="0.67176">
        <ele>133</ele>
        <time>2019-02-14T15:23:08Z</time>
      </trkpt>
      <trkpt lat="44.97575" lon="0.67197">
        <ele>135</ele>
        <time>2019-02-14T15:23:24Z</time>
      </trkpt>
      <trkpt lat="44.97574" lon="0.67219">
        <ele>135</ele>
        <time>2019-02-14T15:23:40Z</time>
      </trkpt>
      <trkpt lat="44.97587" lon="0.67237">
        <ele>134</ele>
        <time>2019-02-14T15:23:56Z</time>
      </trkpt>
      <trkpt lat="44.97598" lon="0.67255">
        <ele>133</ele>
        <time>2019-02-14T15:24:12Z</time>
      </trkpt>
      <trkpt lat="44.9761" lon="0.67273">
        <ele>130</ele>
        <time>2019-02-14T15:24:28Z</time>
      </trkpt>
      <trkpt lat="44.97631" lon="0.67288">
        <ele>127</ele>
        <time>2019-02-14T15:24:44Z</time>
      </trkpt>
      <trkpt lat="44.97647" lon="0.67309">
        <ele>125</ele>
        <time>2019-02-14T15:24:59Z</time>
      </trkpt>
      <trkpt lat="44.97661" lon="0.67333">
        <ele>126</ele>
        <time>2019-02-14T15:25:15Z</time>
      </trkpt>
      <trkpt lat="44.97674" lon="0.67354">
        <ele>128</ele>
        <time>2019-02-14T15:25:31Z</time>
      </trkpt>
      <trkpt lat="44.9768" lon="0.67379">
        <ele>130</ele>
        <time>2019-02-14T15:25:46Z</time>
      </trkpt>
      <trkpt lat="44.97681" lon="0.67403">
        <ele>132</ele>
        <time>2019-02-14T15:26:01Z</time>
      </trkpt>
      <trkpt lat="44.97688" lon="0.67423">
        <ele>135</ele>
        <time>2019-02-14T15:26:17Z</time>
      </trkpt>
      <trkpt lat="44.97694" lon="0.67428">
        <ele>136</ele>
        <time>2019-02-14T15:26:33Z</time>
      </trkpt>
      <trkpt lat="44.97712" lon="0.67436">
        <ele>137</ele>
        <time>2019-02-14T15:26:49Z</time>
      </trkpt>
      <trkpt lat="44.97732" lon="0.67437">
        <ele>136</ele>
        <time>2019-02-14T15:27:05Z</time>
      </trkpt>
      <trkpt lat="44.97744" lon="0.67439">
        <ele>136</ele>
        <time>2019-02-14T15:27:21Z</time>
      </trkpt>
      <trkpt lat="44.9776" lon="0.67448">
        <ele>136</ele>
        <time>2019-02-14T15:27:36Z</time>
      </trkpt>
      <trkpt lat="44.97763" lon="0.67447">
        <ele>137</ele>
        <time>2019-02-14T15:27:52Z</time>
      </trkpt>
      <trkpt lat="44.97761" lon="0.67443">
        <ele>139</ele>
        <time>2019-02-14T15:28:08Z</time>
      </trkpt>
      <trkpt lat="44.97761" lon="0.67443">
        <ele>139</ele>
        <time>2019-02-14T15:28:24Z</time>
      </trkpt>
      <trkpt lat="44.97771" lon="0.67448">
        <ele>140</ele>
        <time>2019-02-14T15:28:40Z</time>
      </trkpt>
      <trkpt lat="44.97789" lon="0.67454">
        <ele>142</ele>
        <time>2019-02-14T15:28:55Z</time>
      </trkpt>
      <trkpt lat="44.97798" lon="0.67455">
        <ele>143</ele>
        <time>2019-02-14T15:29:11Z</time>
      </trkpt>
      <trkpt lat="44.978" lon="0.67454">
        <ele>143</ele>
        <time>2019-02-14T15:29:27Z</time>
      </trkpt>
      <trkpt lat="44.97804" lon="0.67453">
        <ele>144</ele>
        <time>2019-02-14T15:29:42Z</time>
      </trkpt>
      <trkpt lat="44.97824" lon="0.67454">
        <ele>147</ele>
        <time>2019-02-14T15:29:58Z</time>
      </trkpt>
      <trkpt lat="44.97845" lon="0.6746">
        <ele>149</ele>
        <time>2019-02-14T15:30:14Z</time>
      </trkpt>
      <trkpt lat="44.97865" lon="0.67462">
        <ele>152</ele>
        <time>2019-02-14T15:30:30Z</time>
      </trkpt>
      <trkpt lat="44.97879" lon="0.6747">
        <ele>152</ele>
        <time>2019-02-14T15:30:46Z</time>
      </trkpt>
      <trkpt lat="44.97898" lon="0.67478">
        <ele>151</ele>
        <time>2019-02-14T15:31:01Z</time>
      </trkpt>
      <trkpt lat="44.97912" lon="0.67497">
        <ele>150</ele>
        <time>2019-02-14T15:31:17Z</time>
      </trkpt>
      <trkpt lat="44.97919" lon="0.67523">
        <ele>149</ele>
        <time>2019-02-14T15:31:33Z</time>
      </trkpt>
      <trkpt lat="44.97922" lon="0.6755">
        <ele>148</ele>
        <time>2019-02-14T15:31:49Z</time>
      </trkpt>
      <trkpt lat="44.9793" lon="0.67571">
        <ele>148</ele>
        <time>2019-02-14T15:32:05Z</time>
      </trkpt>
      <trkpt lat="44.97943" lon="0.67596">
        <ele>147</ele>
        <time>2019-02-14T15:32:21Z</time>
      </trkpt>
      <trkpt lat="44.97958" lon="0.67614">
        <ele>147</ele>
        <time>2019-02-14T15:32:37Z</time>
      </trkpt>
      <trkpt lat="44.97962" lon="0.67621">
        <ele>148</ele>
        <time>2019-02-14T15:32:53Z</time>
      </trkpt>
      <trkpt lat="44.97965" lon="0.67625">
        <ele>147</ele>
        <time>2019-02-14T15:33:09Z</time>
      </trkpt>
      <trkpt lat="44.97979" lon="0.67642">
        <ele>145</ele>
        <time>2019-02-14T15:33:24Z</time>
      </trkpt>
      <trkpt lat="44.97996" lon="0.67653">
        <ele>145</ele>
        <time>2019-02-14T15:33:40Z</time>
      </trkpt>
      <trkpt lat="44.98015" lon="0.67664">
        <ele>145</ele>
        <time>2019-02-14T15:33:56Z</time>
      </trkpt>
      <trkpt lat="44.98037" lon="0.6767">
        <ele>144</ele>
        <time>2019-02-14T15:34:12Z</time>
      </trkpt>
      <trkpt lat="44.98057" lon="0.67683">
        <ele>144</ele>
        <time>2019-02-14T15:34:28Z</time>
      </trkpt>
      <trkpt lat="44.98074" lon="0.677">
        <ele>145</ele>
        <time>2019-02-14T15:34:44Z</time>
      </trkpt>
      <trkpt lat="44.98091" lon="0.67713">
        <ele>145</ele>
        <time>2019-02-14T15:35:00Z</time>
      </trkpt>
      <trkpt lat="44.98105" lon="0.67728">
        <ele>146</ele>
        <time>2019-02-14T15:35:16Z</time>
      </trkpt>
      <trkpt lat="44.98122" lon="0.67733">
        <ele>146</ele>
        <time>2019-02-14T15:35:32Z</time>
      </trkpt>
      <trkpt lat="44.98134" lon="0.6775">
        <ele>146</ele>
        <time>2019-02-14T15:35:48Z</time>
      </trkpt>
      <trkpt lat="44.98153" lon="0.67763">
        <ele>145</ele>
        <time>2019-02-14T15:36:04Z</time>
      </trkpt>
      <trkpt lat="44.98172" lon="0.67771">
        <ele>147</ele>
        <time>2019-02-14T15:36:20Z</time>
      </trkpt>
      <trkpt lat="44.98184" lon="0.6777">
        <ele>148</ele>
        <time>2019-02-14T15:36:36Z</time>
      </trkpt>
      <trkpt lat="44.982" lon="0.67784">
        <ele>147</ele>
        <time>2019-02-14T15:36:52Z</time>
      </trkpt>
      <trkpt lat="44.98216" lon="0.67794">
        <ele>149</ele>
        <time>2019-02-14T15:37:08Z</time>
      </trkpt>
      <trkpt lat="44.98232" lon="0.67802">
        <ele>151</ele>
        <time>2019-02-14T15:37:24Z</time>
      </trkpt>
      <trkpt lat="44.98236" lon="0.67797">
        <ele>151</ele>
        <time>2019-02-14T15:37:40Z</time>
      </trkpt>
      <trkpt lat="44.98246" lon="0.67783">
        <ele>152</ele>
        <time>2019-02-14T15:37:56Z</time>
      </trkpt>
      <trkpt lat="44.98261" lon="0.67765">
        <ele>152</ele>
        <time>2019-02-14T15:38:12Z</time>
      </trkpt>
      <trkpt lat="44.98278" lon="0.67752">
        <ele>153</ele>
        <time>2019-02-14T15:38:27Z</time>
      </trkpt>
      <trkpt lat="44.9829" lon="0.67742">
        <ele>154</ele>
        <time>2019-02-14T15:38:43Z</time>
      </trkpt>
      <trkpt lat="44.98313" lon="0.67725">
        <ele>156</ele>
        <time>2019-02-14T15:38:58Z</time>
      </trkpt>
      <trkpt lat="44.98324" lon="0.67711">
        <ele>158</ele>
        <time>2019-02-14T15:39:14Z</time>
      </trkpt>
      <trkpt lat="44.98342" lon="0.67695">
        <ele>161</ele>
        <time>2019-02-14T15:39:30Z</time>
      </trkpt>
      <trkpt lat="44.98356" lon="0.67687">
        <ele>164</ele>
        <time>2019-02-14T15:39:46Z</time>
      </trkpt>
      <trkpt lat="44.98366" lon="0.67674">
        <ele>166</ele>
        <time>2019-02-14T15:40:02Z</time>
      </trkpt>
      <trkpt lat="44.98379" lon="0.67666">
        <ele>168</ele>
        <time>2019-02-14T15:40:18Z</time>
      </trkpt>
      <trkpt lat="44.98397" lon="0.67658">
        <ele>170</ele>
        <time>2019-02-14T15:40:34Z</time>
      </trkpt>
      <trkpt lat="44.98419" lon="0.67653">
        <ele>173</ele>
        <time>2019-02-14T15:40:50Z</time>
      </trkpt>
      <trkpt lat="44.98427" lon="0.67649">
        <ele>176</ele>
        <time>2019-02-14T15:41:06Z</time>
      </trkpt>
      <trkpt lat="44.98434" lon="0.67645">
        <ele>178</ele>
        <time>2019-02-14T15:41:22Z</time>
      </trkpt>
      <trkpt lat="44.98449" lon="0.67636">
        <ele>179</ele>
        <time>2019-02-14T15:41:38Z</time>
      </trkpt>
      <trkpt lat="44.98463" lon="0.6763">
        <ele>179</ele>
        <time>2019-02-14T15:41:54Z</time>
      </trkpt>
      <trkpt lat="44.98482" lon="0.67637">
        <ele>179</ele>
        <time>2019-02-14T15:42:10Z</time>
      </trkpt>
      <trkpt lat="44.98497" lon="0.67642">
        <ele>178</ele>
        <time>2019-02-14T15:42:26Z</time>
      </trkpt>
      <trkpt lat="44.98513" lon="0.67655">
        <ele>177</ele>
        <time>2019-02-14T15:42:42Z</time>
      </trkpt>
      <trkpt lat="44.98513" lon="0.67682">
        <ele>176</ele>
        <time>2019-02-14T15:42:58Z</time>
      </trkpt>
      <trkpt lat="44.98511" lon="0.6771">
        <ele>175</ele>
        <time>2019-02-14T15:43:13Z</time>
      </trkpt>
      <trkpt lat="44.98514" lon="0.67734">
        <ele>173</ele>
        <time>2019-02-14T15:43:29Z</time>
      </trkpt>
      <trkpt lat="44.9851" lon="0.67758">
        <ele>170</ele>
        <time>2019-02-14T15:43:44Z</time>
      </trkpt>
      <trkpt lat="44.98507" lon="0.67788">
        <ele>168</ele>
        <time>2019-02-14T15:44:00Z</time>
      </trkpt>
      <trkpt lat="44.98503" lon="0.67815">
        <ele>169</ele>
        <time>2019-02-14T15:44:16Z</time>
      </trkpt>
      <trkpt lat="44.985" lon="0.6784">
        <ele>169</ele>
        <time>2019-02-14T15:44:32Z</time>
      </trkpt>
      <trkpt lat="44.98497" lon="0.67866">
        <ele>170</ele>
        <time>2019-02-14T15:44:48Z</time>
      </trkpt>
      <trkpt lat="44.98489" lon="0.67886">
        <ele>172</ele>
        <time>2019-02-14T15:45:04Z</time>
      </trkpt>
      <trkpt lat="44.98485" lon="0.6791">
        <ele>174</ele>
        <time>2019-02-14T15:45:20Z</time>
      </trkpt>
      <trkpt lat="44.98478" lon="0.67925">
        <ele>176</ele>
        <time>2019-02-14T15:45:36Z</time>
      </trkpt>
      <trkpt lat="44.98469" lon="0.67944">
        <ele>176</ele>
        <time>2019-02-14T15:45:51Z</time>
      </trkpt>
      <trkpt lat="44.98464" lon="0.67969">
        <ele>177</ele>
        <time>2019-02-14T15:46:07Z</time>
      </trkpt>
      <trkpt lat="44.98458" lon="0.67994">
        <ele>179</ele>
        <time>2019-02-14T15:46:23Z</time>
      </trkpt>
      <trkpt lat="44.98458" lon="0.68009">
        <ele>180</ele>
        <time>2019-02-14T15:46:39Z</time>
      </trkpt>
      <trkpt lat="44.98469" lon="0.68034">
        <ele>180</ele>
        <time>2019-02-14T15:46:55Z</time>
      </trkpt>
      <trkpt lat="44.98489" lon="0.68047">
        <ele>182</ele>
        <time>2019-02-14T15:47:11Z</time>
      </trkpt>
      <trkpt lat="44.98499" lon="0.68066">
        <ele>184</ele>
        <time>2019-02-14T15:47:27Z</time>
      </trkpt>
      <trkpt lat="44.98505" lon="0.68074">
        <ele>185</ele>
        <time>2019-02-14T15:47:43Z</time>
      </trkpt>
      <trkpt lat="44.98505" lon="0.68076">
        <ele>186</ele>
        <time>2019-02-14T15:47:59Z</time>
      </trkpt>
      <trkpt lat="44.98505" lon="0.68076">
        <ele>185</ele>
        <time>2019-02-14T15:48:15Z</time>
      </trkpt>
      <trkpt lat="44.98506" lon="0.68075">
        <ele>186</ele>
        <time>2019-02-14T15:48:31Z</time>
      </trkpt>
    </trkseg>
  </trk>
</gpx>